Station: EBSP - 15/10/2018 15:51Z (il y a 20 minutes)
EBSP 151550Z AUTO VRB02KT CAVOK 20/07 Q1015
Vent de direction variable: 2 kt
Visibilité > 10 km et plafond haut ou pas de nuages significatifs
Température: +20ºC - Point de rosée: +07ºC - QNH: 1015 hPa